Airfield :
LOGIN :

Register | Disclaimer

   EN    FR    IT 

 










Legend :    VFR   Marginal VFR   IFR   Intensive IFR   Very Intensive IFR
Visi :
Ceiling :
>= 8 km
>= 3000ft
5 to 8 km
1000 to 3000 ft
1500m to 5 km
500 to 1000 ft
800 to 1500m
200 to 500 ft
< 800m
< 200 ft
Symbols :   Thunderstorms  Fog  Heavy snow  Heavy precipitations  Wind > 20 kt
SIGMETs :     Misc.  Thunderstorms  Icing  Turbulence  Mountain Waves  Volcanic Ashes






- Airport Elevation : 74 ft
- IATA code : EIN


EHEH - Eindhoven

CURRENT METAR :
  • 080555Z AUTO 03002KT 9999 OVC078 07/06 Q1025 BLU 04003KT CAVOK

EXPIRED METARs :
  • 080540Z AUTO VRB02KT 9000 BR OVC081 07/06 Q1025 BLU 04003KT CAVOK
  • 080525Z AUTO 04002KT 9999 BKN081 06/05 Q1025 BLU 04003KT CAVOK
  • 080455Z AUTO 01002KT 9000 BR OVC340 06/05 Q1025 BLU 04003KT CAVOK
  • 080425Z AUTO 04002KT 9999 NCD 07/05 Q1025 BLU 04003KT CAVOK
  • 080355Z AUTO 04001KT 9999 OVC350 07/06 Q1025 BLU
  • 080325Z AUTO 03002KT 9999 OVC300 08/06 Q1025 BLU

TAF TAF EHEH
Valid from the 08 at 06:00 until the 09 at 12:00 UTC


080544Z 0806/0912 VRB02KT CAVOK
PROB40
TEMPO 0807/0811 14003KT
BECMG 0820/0823 36004KT
BECMG 0905/0908 06008KT



MET'MAP, your aeronautical weather chart ! - Copyright ORBIFLY December 2007 - Disclaimer

ORBIFLY MET'MAP TEAM :

Programming & Development : Alexandra Zaïnal
Concept & original design : Baudouin d'Aumeries
Assistance for programming : Marc-Olivier Méhu
Technical & hardware support : Manuel Goepfert

Contact : metmap@orbifly.com




SOURCES & CREDITS :

   NOAA